Time;durP1;ratioP1;P1;durP2;ratioP2;P2;SDS_P1;SDS_P2;PMS_P1;PMS_P2;Temp;Humidity;BMP_temperature;BMP_pressure;BME280_temperature;BME280_humidity;BME280_pressure;Samples;Min_cycle;Max_cycle;Signal;HPM_P1;HPM_P2
2022/04/18 00:01:30;;;;;;;8.85;5.25;;;11.50;54.50;;;;;;5023336;28;20044;-73
2022/04/18 00:03:55;;;;;;;8.57;4.40;;;11.50;54.40;;;;;;5021510;28;20080;-74
2022/04/18 00:06:21;;;;;;;8.50;4.75;;;11.40;54.70;;;;;;5026177;28;20046;-73
2022/04/18 00:08:47;;;;;;;8.13;4.85;;;11.30;55.20;;;;;;5029933;28;20411;-74
2022/04/18 00:11:13;;;;;;;8.40;4.90;;;11.20;55.50;;;;;;5029966;28;20044;-74
2022/04/18 00:13:38;;;;;;;8.68;4.90;;;11.10;55.70;;;;;;5027058;28;20064;-73
2022/04/18 00:16:04;;;;;;;7.93;4.45;;;11.10;56.20;;;;;;5022259;28;20049;-74
2022/04/18 00:18:30;;;;;;;8.02;4.28;;;11.10;56.40;;;;;;5021804;28;20048;-73
2022/04/18 00:20:55;;;;;;;7.35;4.57;;;11.00;56.20;;;;;;5021967;28;20029;-74
2022/04/18 00:23:21;;;;;;;6.85;4.43;;;11.10;55.90;;;;;;5025609;28;20125;-73
2022/04/18 00:25:47;;;;;;;5.97;3.90;;;11.10;55.20;;;;;;5020211;28;20058;-73
2022/04/18 00:28:13;;;;;;;7.45;4.38;;;11.20;54.90;;;;;;5021199;28;20489;-74
2022/04/18 00:30:39;;;;;;;7.38;4.30;;;11.20;55.00;;;;;;5025399;28;20033;-73
2022/04/18 00:33:04;;;;;;;8.30;4.90;;;11.20;55.30;;;;;;5026978;28;20095;-73
2022/04/18 00:35:30;;;;;;;8.18;4.75;;;11.20;55.50;;;;;;5025850;28;20033;-74
2022/04/18 00:37:56;;;;;;;7.97;4.80;;;11.20;55.10;;;;;;5022246;28;20453;-74
2022/04/18 00:40:21;;;;;;;8.10;5.28;;;11.10;55.30;;;;;;5025626;28;20232;-75
2022/04/18 00:42:47;;;;;;;8.80;4.85;;;11.10;55.60;;;;;;5025198;28;20042;-74
2022/04/18 00:45:13;;;;;;;8.85;4.88;;;11.00;55.80;;;;;;5028635;28;20045;-74
2022/04/18 00:47:38;;;;;;;8.15;4.63;;;10.90;56.10;;;;;;5024251;28;20111;-73
2022/04/18 00:50:05;;;;;;;9.95;5.50;;;10.80;56.50;;;;;;5021398;28;20040;-73
2022/04/18 00:52:32;;;;;;;9.05;4.93;;;10.80;57.10;;;;;;5026133;28;20044;-73
2022/04/18 00:55:01;;;;;;;7.20;4.75;;;10.70;57.20;;;;;;5022042;28;20069;-73
2022/04/18 00:57:28;;;;;;;13.35;4.93;;;10.60;57.20;;;;;;5020636;28;20040;-72
2022/04/18 00:59:53;;;;;;;7.90;4.72;;;10.60;57.70;;;;;;5013493;28;20066;-72
2022/04/18 01:02:19;;;;;;;8.10;4.60;;;10.60;57.80;;;;;;5026709;28;20088;-72
2022/04/18 01:04:45;;;;;;;7.30;4.47;;;10.60;57.20;;;;;;5028858;28;20408;-71
2022/04/18 01:07:12;;;;;;;9.40;4.53;;;10.60;56.50;;;;;;5017195;28;20030;-72
2022/04/18 01:09:38;;;;;;;7.65;4.45;;;10.60;56.50;;;;;;5026247;28;20531;-72
2022/04/18 01:12:04;;;;;;;6.90;4.35;;;10.60;56.60;;;;;;5024457;28;20033;-72
2022/04/18 01:14:30;;;;;;;7.53;4.90;;;10.60;56.50;;;;;;5027632;28;20029;-71
2022/04/18 01:16:55;;;;;;;6.93;4.25;;;10.50;56.40;;;;;;5025912;28;20057;-74
2022/04/18 01:19:21;;;;;;;6.97;4.45;;;10.60;56.30;;;;;;5035215;28;20045;-72
2022/04/18 01:21:47;;;;;;;7.93;4.80;;;10.50;56.40;;;;;;5027519;28;20040;-72
2022/04/18 01:29:41;;;;;;;7.43;4.20;;;10.40;56.90;;;;;;5024931;28;20127;-73
2022/04/18 01:32:07;;;;;;;7.70;4.20;;;10.40;56.90;;;;;;5021359;28;20308;-73
2022/04/18 01:34:32;;;;;;;7.35;4.30;;;10.40;55.60;;;;;;5023611;28;20045;-73
2022/04/18 01:36:58;;;;;;;6.65;3.60;;;10.50;55.20;;;;;;5026171;28;20033;-73
2022/04/18 01:39:24;;;;;;;6.53;3.80;;;10.60;55.20;;;;;;5022213;28;20087;-73
2022/04/18 01:41:50;;;;;;;7.90;4.13;;;10.50;55.50;;;;;;5029423;28;20128;-73
2022/04/18 01:44:16;;;;;;;7.03;4.00;;;10.50;55.30;;;;;;5028242;28;20164;-72
2022/04/18 01:46:42;;;;;;;7.38;4.82;;;10.50;55.30;;;;;;5029090;28;20049;-72
2022/04/18 01:49:08;;;;;;;7.10;4.60;;;10.40;55.50;;;;;;5026855;28;20041;-73
2022/04/18 01:51:33;;;;;;;6.75;3.90;;;10.40;55.70;;;;;;5022662;28;20041;-72
2022/04/18 01:53:59;;;;;;;7.03;4.30;;;10.30;56.00;;;;;;5031651;28;20384;-74
2022/04/18 01:56:24;;;;;;;7.00;4.85;;;10.20;56.20;;;;;;5032016;28;20033;-73
2022/04/18 01:58:50;;;;;;;7.07;4.40;;;10.20;56.40;;;;;;5027056;28;20128;-73
2022/04/18 02:01:17;;;;;;;6.93;4.22;;;10.20;56.70;;;;;;5035480;28;20389;-74
2022/04/18 02:03:43;;;;;;;7.38;4.30;;;10.20;56.90;;;;;;5027000;28;20352;-74
2022/04/18 02:06:10;;;;;;;8.65;4.50;;;10.10;57.10;;;;;;5022389;28;20416;-73
2022/04/18 02:08:36;;;;;;;5.95;4.05;;;10.10;57.30;;;;;;5035247;28;20516;-74
2022/04/18 02:11:04;;;;;;;7.53;4.57;;;10.10;56.90;;;;;;5028101;28;20061;-73
2022/04/18 02:13:29;;;;;;;6.95;4.25;;;10.10;57.00;;;;;;5028926;28;20370;-72
2022/04/18 02:15:57;;;;;;;8.02;4.00;;;10.00;57.30;;;;;;5032878;28;20044;-73
2022/04/18 02:18:23;;;;;;;6.72;3.55;;;10.00;57.00;;;;;;5027186;28;20444;-73
2022/04/18 02:20:49;;;;;;;6.53;3.50;;;10.00;56.90;;;;;;5030795;28;20060;-73
2022/04/18 02:23:15;;;;;;;5.53;3.50;;;10.00;56.30;;;;;;5033557;28;20361;-73
2022/04/18 02:25:41;;;;;;;5.63;3.10;;;10.00;56.00;;;;;;5034536;28;20463;-72
2022/04/18 02:28:07;;;;;;;5.68;3.15;;;10.00;55.70;;;;;;5027371;28;20395;-73
2022/04/18 02:30:32;;;;;;;7.53;2.88;;;10.10;55.40;;;;;;5034068;28;20116;-72
2022/04/18 02:32:59;;;;;;;6.00;3.05;;;10.10;55.10;;;;;;5028191;28;20489;-72
2022/04/18 02:35:26;;;;;;;6.05;3.20;;;10.10;54.80;;;;;;5020386;28;20397;-72
2022/04/18 02:37:53;;;;;;;6.22;3.08;;;10.10;54.50;;;;;;5025847;28;20468;-72
2022/04/18 02:40:19;;;;;;;5.45;2.92;;;10.10;54.60;;;;;;5024951;28;20509;-72
2022/04/18 02:42:45;;;;;;;6.72;3.22;;;10.20;53.40;;;;;;5025534;28;20041;-72
2022/04/18 02:45:12;;;;;;;7.55;3.15;;;10.20;53.50;;;;;;5025847;28;20037;-72
2022/04/18 02:47:38;;;;;;;5.57;3.15;;;10.20;53.90;;;;;;5026724;28;20469;-72
2022/04/18 02:50:05;;;;;;;6.30;3.47;;;10.20;54.20;;;;;;5029927;28;20036;-72
2022/04/18 02:52:31;;;;;;;5.22;3.08;;;10.10;54.70;;;;;;5027746;28;20033;-73
2022/04/18 02:54:56;;;;;;;6.90;3.40;;;10.10;54.90;;;;;;5031481;28;20542;-73
2022/04/18 02:57:22;;;;;;;5.90;3.63;;;10.00;55.40;;;;;;5027309;28;20038;-72
2022/04/18 02:59:48;;;;;;;6.30;3.38;;;10.00;55.80;;;;;;5025769;28;20488;-72
2022/04/18 03:02:13;;;;;;;7.53;4.10;;;9.90;55.90;;;;;;5023233;28;20053;-72
2022/04/18 03:04:39;;;;;;;6.60;4.22;;;9.80;56.40;;;;;;5019894;28;20498;-73
2022/04/18 03:07:05;;;;;;;8.13;4.40;;;9.60;57.00;;;;;;5020751;28;20037;-72
2022/04/18 03:09:31;;;;;;;6.95;4.03;;;9.60;57.60;;;;;;5015386;28;20052;-72
2022/04/18 03:11:57;;;;;;;7.00;4.07;;;9.40;57.90;;;;;;5026241;28;20436;-72
2022/04/18 03:14:23;;;;;;;7.20;3.92;;;9.30;58.40;;;;;;5025402;28;20041;-72
2022/04/18 03:16:49;;;;;;;7.70;4.30;;;9.20;58.70;;;;;;5030989;28;20088;-73
2022/04/18 03:19:15;;;;;;;7.70;4.38;;;9.30;58.40;;;;;;5029326;28;20039;-72
2022/04/18 03:21:41;;;;;;;7.97;4.35;;;9.20;58.90;;;;;;5030608;28;20039;-72
2022/04/18 03:24:07;;;;;;;8.20;4.25;;;9.20;59.20;;;;;;5032602;28;20502;-72
2022/04/18 03:26:33;;;;;;;8.48;4.43;;;9.20;59.50;;;;;;5026827;28;20042;-72
2022/04/18 03:28:58;;;;;;;8.18;5.10;;;9.10;59.90;;;;;;5020017;28;20117;-72
2022/04/18 03:31:24;;;;;;;9.05;4.50;;;9.10;60.00;;;;;;5023207;28;20116;-73
2022/04/18 03:33:50;;;;;;;7.90;3.92;;;9.20;59.60;;;;;;5023930;28;20037;-72
2022/04/18 03:41:44;;;;;;;8.23;4.25;;;9.30;59.10;;;;;;5019084;28;20092;-72
2022/04/18 03:44:10;;;;;;;7.45;4.55;;;9.30;59.10;;;;;;5012982;28;20393;-72
2022/04/18 03:46:36;;;;;;;6.72;4.00;;;9.20;59.40;;;;;;5029592;28;20053;-72
2022/04/18 03:49:01;;;;;;;9.93;4.43;;;9.10;59.80;;;;;;5018758;28;20034;-72
2022/04/18 03:51:27;;;;;;;8.82;4.13;;;9.10;60.20;;;;;;5027083;28;20045;-72
2022/04/18 03:53:53;;;;;;;7.68;4.03;;;9.10;60.00;;;;;;5027747;28;20064;-72
2022/04/18 03:56:18;;;;;;;6.10;3.80;;;9.00;59.90;;;;;;5027360;28;20065;-72
2022/04/18 03:58:44;;;;;;;6.45;4.00;;;9.00;60.40;;;;;;5021393;28;20501;-73
2022/04/18 04:01:10;;;;;;;6.53;3.78;;;9.00;60.70;;;;;;5026713;28;20542;-72
2022/04/18 04:03:35;;;;;;;8.38;4.55;;;9.00;60.30;;;;;;5031119;28;20164;-72
2022/04/18 04:06:01;;;;;;;7.65;4.80;;;9.00;60.20;;;;;;5028823;28;20041;-72
2022/04/18 04:08:28;;;;;;;6.50;4.00;;;9.00;60.20;;;;;;5035465;28;20029;-72
2022/04/18 04:10:54;;;;;;;6.75;4.05;;;8.90;60.50;;;;;;5024431;28;20481;-73
2022/04/18 04:13:19;;;;;;;5.95;3.78;;;8.90;60.60;;;;;;5027180;28;20690;-72
2022/04/18 04:15:46;;;;;;;6.20;3.80;;;8.90;60.50;;;;;;5027021;28;20041;-72
2022/04/18 04:18:11;;;;;;;7.82;4.18;;;8.90;60.40;;;;;;5023345;28;20033;-72
2022/04/18 04:20:37;;;;;;;6.93;4.30;;;8.80;60.60;;;;;;5022312;28;20040;-73
2022/04/18 04:23:03;;;;;;;6.22;3.95;;;8.70;60.70;;;;;;5028182;28;20052;-72
2022/04/18 04:25:29;;;;;;;7.93;4.38;;;8.70;60.90;;;;;;5025907;28;20045;-72
2022/04/18 04:27:54;;;;;;;6.45;4.00;;;8.70;60.90;;;;;;5024904;28;20034;-72
2022/04/18 04:30:20;;;;;;;8.02;4.20;;;8.70;61.20;;;;;;5031931;28;20053;-72
2022/04/18 04:32:48;;;;;;;6.72;4.47;;;8.60;61.30;;;;;;5033227;28;20538;-72
2022/04/18 04:35:14;;;;;;;7.25;4.78;;;8.70;61.40;;;;;;5027546;28;20033;-72
2022/04/18 04:37:40;;;;;;;7.47;4.75;;;8.70;60.80;;;;;;5025255;28;20060;-72
2022/04/18 04:40:06;;;;;;;8.60;4.65;;;8.60;61.20;;;;;;5020857;28;20511;-73
2022/04/18 04:42:32;;;;;;;7.10;4.45;;;8.60;61.60;;;;;;5025226;28;20040;-72
2022/04/18 04:44:57;;;;;;;7.13;4.20;;;8.60;61.60;;;;;;5026712;28;20049;-72
2022/04/18 04:47:23;;;;;;;7.43;4.30;;;8.50;62.00;;;;;;5037488;28;20041;-72
2022/04/18 04:49:49;;;;;;;10.38;5.18;;;8.40;62.20;;;;;;5030302;28;20072;-72
2022/04/18 04:52:15;;;;;;;10.00;5.28;;;8.40;62.40;;;;;;5034143;28;20064;-72
2022/04/18 04:54:40;;;;;;;8.63;5.10;;;8.40;62.50;;;;;;5028174;28;20041;-71
2022/04/18 04:57:06;;;;;;;7.72;4.47;;;8.30;62.70;;;;;;5028329;28;20485;-71
2022/04/18 04:59:31;;;;;;;8.93;5.15;;;8.30;62.70;;;;;;5020124;28;20141;-72
2022/04/18 05:01:57;;;;;;;8.45;4.50;;;8.30;62.60;;;;;;5031218;28;20060;-72
2022/04/18 05:04:25;;;;;;;9.05;5.00;;;8.30;62.30;;;;;;5030385;28;20107;-72
2022/04/18 05:06:52;;;;;;;9.15;4.85;;;8.30;62.30;;;;;;5033540;28;20036;-73
2022/04/18 05:09:17;;;;;;;8.73;5.13;;;8.30;62.60;;;;;;5023415;28;20037;-72
2022/04/18 05:11:44;;;;;;;8.90;5.10;;;8.40;62.60;;;;;;5037284;28;20103;-72
2022/04/18 05:14:10;;;;;;;9.50;4.88;;;8.30;62.50;;;;;;5027655;28;20038;-72
2022/04/18 05:16:35;;;;;;;9.48;4.72;;;8.40;62.50;;;;;;5029506;28;20041;-72
2022/04/18 05:19:01;;;;;;;9.05;4.63;;;8.50;62.50;;;;;;5028884;28;20060;-72
2022/04/18 05:21:27;;;;;;;9.57;5.32;;;8.40;62.50;;;;;;5030685;28;20033;-72
2022/04/18 05:23:52;;;;;;;6.90;4.28;;;8.40;62.50;;;;;;5032338;28;20033;-72
2022/04/18 05:26:18;;;;;;;8.07;4.85;;;8.50;62.40;;;;;;5026255;28;20118;-72
2022/04/18 05:28:44;;;;;;;8.52;4.85;;;8.50;62.50;;;;;;5031345;28;20033;-72
2022/04/18 05:31:09;;;;;;;8.52;4.95;;;8.60;62.70;;;;;;5034787;28;20041;-72
2022/04/18 05:33:35;;;;;;;9.02;4.38;;;8.60;62.70;;;;;;5039958;28;20037;-71
2022/04/18 05:36:01;;;;;;;7.13;4.32;;;8.60;62.70;;;;;;5029018;28;20041;-72
2022/04/18 05:38:26;;;;;;;7.18;4.55;;;8.60;62.70;;;;;;5024827;28;20539;-71
2022/04/18 05:40:52;;;;;;;8.63;4.55;;;8.50;62.70;;;;;;5032512;28;20092;-72
2022/04/18 05:43:17;;;;;;;7.45;4.57;;;8.50;62.70;;;;;;5021990;28;20083;-72
2022/04/18 05:45:44;;;;;;;8.50;6.00;;;8.50;62.60;;;;;;5031991;28;20054;-72
2022/04/18 05:48:09;;;;;;;8.65;7.22;;;8.50;62.40;;;;;;5037371;28;20033;-72
2022/04/18 05:50:35;;;;;;;9.82;6.18;;;8.60;62.10;;;;;;5039728;28;20047;-72
2022/04/18 05:53:01;;;;;;;11.00;5.38;;;8.60;61.90;;;;;;5031998;28;20794;-72
2022/04/18 05:55:27;;;;;;;7.95;5.78;;;8.60;62.20;;;;;;5029044;28;20037;-72
2022/04/18 05:57:53;;;;;;;9.73;6.68;;;8.60;62.40;;;;;;5036263;28;20041;-72
2022/04/18 06:00:19;;;;;;;9.65;6.55;;;8.60;62.40;;;;;;5027811;28;20484;-72
2022/04/18 06:02:45;;;;;;;9.50;6.30;;;8.60;62.20;;;;;;5033221;28;20068;-72
2022/04/18 06:05:10;;;;;;;10.32;6.80;;;8.60;62.30;;;;;;5026601;28;20428;-71
2022/04/18 06:07:36;;;;;;;13.20;7.18;;;8.70;62.30;;;;;;5026565;28;20048;-72
2022/04/18 06:10:03;;;;;;;8.73;5.93;;;8.70;62.40;;;;;;5034168;28;20022;-72
2022/04/18 06:12:29;;;;;;;12.32;6.65;;;8.80;62.50;;;;;;5036763;28;20040;-72
2022/04/18 06:14:55;;;;;;;9.60;6.68;;;8.90;62.40;;;;;;5024947;28;20068;-72
2022/04/18 06:17:20;;;;;;;10.80;6.78;;;9.00;62.30;;;;;;5029995;28;20040;-73
2022/04/18 06:19:46;;;;;;;10.32;6.60;;;9.00;62.40;;;;;;5029724;28;20380;-71
2022/04/18 06:22:12;;;;;;;11.65;6.85;;;9.10;62.40;;;;;;5034241;28;20030;-72
2022/04/18 06:24:37;;;;;;;9.43;5.97;;;9.10;62.10;;;;;;5030550;28;20053;-72
2022/04/18 06:27:03;;;;;;;12.88;5.53;;;9.20;61.90;;;;;;5032962;28;20367;-72
2022/04/18 06:29:29;;;;;;;15.07;5.60;;;9.30;61.10;;;;;;5032268;28;20037;-73
2022/04/18 06:31:54;;;;;;;14.88;6.00;;;9.50;60.60;;;;;;5028089;28;20062;-72
2022/04/18 06:34:21;;;;;;;12.95;4.60;;;9.70;59.70;;;;;;5027797;28;20684;-72
2022/04/18 06:36:46;;;;;;;10.10;4.85;;;9.90;58.70;;;;;;5027831;28;20043;-72
2022/04/18 06:39:12;;;;;;;11.13;4.30;;;10.10;58.20;;;;;;5022988;28;20042;-72
2022/04/18 06:41:38;;;;;;;7.00;4.18;;;10.30;57.50;;;;;;5033525;28;20036;-72
2022/04/18 06:44:04;;;;;;;7.70;4.32;;;10.50;56.80;;;;;;5024979;28;20033;-73
2022/04/18 06:46:29;;;;;;;7.45;3.90;;;10.70;56.00;;;;;;5039399;28;20391;-72
2022/04/18 06:48:55;;;;;;;7.82;3.75;;;10.90;55.20;;;;;;5031268;28;20036;-72
2022/04/18 06:51:21;;;;;;;8.02;3.70;;;11.10;53.90;;;;;;5020113;28;20107;-72
2022/04/18 06:53:46;;;;;;;8.02;3.75;;;11.30;53.40;;;;;;5026061;28;20025;-72
2022/04/18 06:58:57;;;;;;;6.53;2.80;;;11.70;51.00;;;;;;5021524;28;20087;-72
2022/04/18 07:01:22;;;;;;;5.15;3.00;;;12.00;49.20;;;;;;5021813;28;20041;-72
2022/04/18 07:03:48;;;;;;;8.50;3.60;;;12.30;48.40;;;;;;5023689;28;20057;-72
2022/04/18 07:06:14;;;;;;;4.95;3.00;;;12.50;47.30;;;;;;5029252;28;20052;-73
2022/04/18 07:08:39;;;;;;;6.43;3.53;;;12.70;46.50;;;;;;5028600;28;20104;-72
2022/04/18 07:11:05;;;;;;;6.68;3.55;;;13.00;46.80;;;;;;5020234;28;20437;-73
2022/04/18 07:13:30;;;;;;;5.70;3.00;;;13.20;45.20;;;;;;5030984;28;20033;-73
2022/04/18 07:15:56;;;;;;;8.75;3.50;;;13.40;44.10;;;;;;5031276;28;20037;-72
2022/04/18 07:18:22;;;;;;;8.68;3.30;;;13.60;44.70;;;;;;5026367;28;20037;-74
2022/04/18 07:20:48;;;;;;;6.32;3.42;;;13.80;44.70;;;;;;5024522;28;20038;-72
2022/04/18 07:23:13;;;;;;;6.03;2.83;;;14.10;43.00;;;;;;5027900;28;20104;-72
2022/04/18 07:25:39;;;;;;;7.28;3.13;;;14.10;41.40;;;;;;5033156;28;20458;-73
2022/04/18 07:28:06;;;;;;;6.88;3.15;;;14.30;40.90;;;;;;5023971;28;20038;-73
2022/04/18 07:30:32;;;;;;;6.30;2.85;;;14.50;41.20;;;;;;5033044;28;20057;-73
2022/04/18 07:32:58;;;;;;;8.38;3.22;;;14.60;40.40;;;;;;5024353;28;20029;-73
2022/04/18 07:35:24;;;;;;;6.95;3.25;;;14.70;39.60;;;;;;5026110;28;20099;-73
2022/04/18 07:40:34;;;;;;;5.38;2.67;;;15.10;39.00;;;;;;5024622;28;20064;-73
2022/04/18 07:43:00;;;;;;;8.88;2.90;;;15.20;38.80;;;;;;5022706;28;20029;-73
2022/04/18 07:45:26;;;;;;;8.55;4.07;;;15.40;38.00;;;;;;5021687;28;20128;-73
2022/04/18 07:47:52;;;;;;;7.43;3.20;;;15.50;37.90;;;;;;5020090;28;20045;-73
2022/04/18 07:50:18;;;;;;;8.25;3.13;;;15.60;37.60;;;;;;5031234;28;20026;-73
2022/04/18 07:52:45;;;;;;;6.22;2.92;;;15.70;37.80;;;;;;5030980;28;20037;-73
2022/04/18 07:55:10;;;;;;;7.07;3.17;;;15.90;36.50;;;;;;5024319;28;20121;-73
2022/04/18 07:57:37;;;;;;;6.18;2.70;;;16.10;36.90;;;;;;5024522;28;20140;-73
2022/04/18 08:00:07;;;;;;;6.80;2.90;;;16.20;37.20;;;;;;5022494;28;20045;-73
2022/04/18 08:02:34;;;;;;;5.10;2.65;;;16.30;36.30;;;;;;5023261;28;20333;-73
2022/04/18 08:05:00;;;;;;;9.68;3.17;;;16.50;36.90;;;;;;5032663;28;20049;-73
2022/04/18 08:07:25;;;;;;;6.53;2.72;;;16.60;35.90;;;;;;5032157;28;20029;-73
2022/04/18 08:09:51;;;;;;;6.85;3.13;;;16.70;35.80;;;;;;5018155;28;20373;-71
2022/04/18 08:12:17;;;;;;;7.18;2.85;;;16.80;35.70;;;;;;5031423;28;20124;-73
2022/04/18 08:14:42;;;;;;;8.25;3.35;;;16.90;34.90;;;;;;5026949;28;20045;-72
2022/04/18 08:17:08;;;;;;;6.57;3.10;;;17.00;34.90;;;;;;5023938;28;20066;-72
2022/04/18 08:19:35;;;;;;;8.77;3.08;;;17.00;34.60;;;;;;5027097;28;20072;-72
2022/04/18 08:22:02;;;;;;;5.80;3.17;;;16.90;35.30;;;;;;5030458;28;20040;-72
2022/04/18 08:24:28;;;;;;;5.85;2.95;;;17.10;35.30;;;;;;5031810;28;20040;-72
2022/04/18 08:26:54;;;;;;;7.18;3.10;;;17.10;35.10;;;;;;5031523;28;20034;-73
2022/04/18 08:29:22;;;;;;;7.30;3.20;;;17.30;35.50;;;;;;5041284;28;20620;-73
2022/04/18 08:31:48;;;;;;;6.78;3.20;;;17.40;34.70;;;;;;5031173;28;20080;-73
2022/04/18 08:34:14;;;;;;;6.35;3.13;;;17.60;34.90;;;;;;5029203;28;20057;-73
2022/04/18 08:36:39;;;;;;;8.77;3.90;;;17.80;35.00;;;;;;5033758;28;20507;-73
2022/04/18 08:39:05;;;;;;;8.63;3.47;;;18.00;35.20;;;;;;5034746;28;20533;-73
2022/04/18 08:41:38;;;;;;;8.05;3.80;;;18.10;34.80;;;;;;5026723;28;20033;-73
2022/04/18 08:44:05;;;;;;;7.95;3.45;;;18.20;34.80;;;;;;5034014;28;20025;-73
2022/04/18 08:46:31;;;;;;;7.30;3.38;;;18.20;34.60;;;;;;5028116;28;20039;-73
2022/04/18 08:54:28;;;;;;;6.95;3.88;;;18.60;34.00;;;;;;5029759;28;20060;-72
2022/04/18 08:56:55;;;;;;;6.63;3.42;;;18.60;35.00;;;;;;5035593;28;20025;-72
2022/04/18 08:59:21;;;;;;;7.25;3.17;;;18.80;34.40;;;;;;5025856;28;20057;-71
2022/04/18 09:01:52;;;;;;;10.50;3.20;;;18.80;33.70;;;;;;5027129;28;20432;-73
2022/04/18 09:04:20;;;;;;;7.03;3.40;;;19.00;33.10;;;;;;5023873;28;20091;-74
2022/04/18 09:06:45;;;;;;;7.18;3.40;;;18.90;34.20;;;;;;5031092;28;20416;-73
2022/04/18 09:09:11;;;;;;;8.18;3.75;;;19.00;33.90;;;;;;5031491;28;20026;-73
2022/04/18 09:11:37;;;;;;;6.75;3.40;;;19.20;33.20;;;;;;5041298;28;20029;-73
2022/04/18 09:14:10;;;;;;;9.80;4.28;;;19.30;33.70;;;;;;5029385;28;20040;-73
2022/04/18 09:16:37;;;;;;;6.78;3.40;;;19.50;32.70;;;;;;5022133;28;20039;-72
2022/04/18 09:19:05;;;;;;;8.15;3.30;;;19.60;33.20;;;;;;5030939;28;20033;-74
2022/04/18 09:21:31;;;;;;;6.57;3.33;;;19.60;32.90;;;;;;5033087;28;20042;-74
2022/04/18 09:23:57;;;;;;;7.32;3.00;;;19.70;33.20;;;;;;5026599;28;20029;-75
2022/04/18 09:26:23;;;;;;;6.50;3.70;;;19.90;33.10;;;;;;5031922;28;20054;-74
2022/04/18 09:28:49;;;;;;;7.15;3.80;;;19.90;31.70;;;;;;5029531;28;20033;-74
2022/04/18 09:31:19;;;;;;;7.50;3.42;;;20.00;33.10;;;;;;5022948;28;20026;-73
2022/04/18 09:33:56;;;;;;;7.28;3.60;;;20.10;32.80;;;;;;5031495;28;20435;-73
2022/04/18 09:36:23;;;;;;;8.85;4.88;;;20.10;32.60;;;;;;5028944;28;20038;-73
2022/04/18 09:38:50;;;;;;;7.72;3.67;;;20.20;32.30;;;;;;5025659;28;20099;-74
2022/04/18 09:41:24;;;;;;;5.80;2.75;;;20.50;31.80;;;;;;5034081;28;20079;-73
2022/04/18 09:43:55;;;;;;;6.30;2.95;;;20.50;30.70;;;;;;5028249;28;20038;-74
2022/04/18 09:46:22;;;;;;;5.03;2.60;;;20.60;30.50;;;;;;5033777;28;21687;-72
2022/04/18 09:48:50;;;;;;;6.05;3.15;;;20.60;30.20;;;;;;5028760;28;20603;-73
2022/04/18 09:51:27;;;;;;;4.53;2.72;;;20.60;29.80;;;;;;5027001;28;20033;-73
2022/04/18 09:53:57;;;;;;;7.18;3.45;;;20.90;29.90;;;;;;5026999;28;20440;-74
2022/04/18 09:56:24;;;;;;;5.28;2.65;;;20.90;29.20;;;;;;5034151;28;20147;-72
2022/04/18 09:58:50;;;;;;;6.53;2.80;;;21.00;30.10;;;;;;5035644;28;20084;-73
2022/04/18 10:01:16;;;;;;;7.03;2.85;;;21.30;30.20;;;;;;5033783;28;20031;-72
2022/04/18 10:03:43;;;;;;;7.22;2.90;;;21.40;29.30;;;;;;5029464;28;20214;-73
2022/04/18 10:06:10;;;;;;;5.85;2.95;;;21.50;29.00;;;;;;5031153;28;20094;-73
2022/04/18 10:08:37;;;;;;;5.38;2.63;;;21.60;28.50;;;;;;5033413;28;20029;-73
2022/04/18 10:11:05;;;;;;;5.65;2.83;;;21.70;28.40;;;;;;5031839;28;20045;-73
2022/04/18 10:13:31;;;;;;;6.78;2.90;;;21.70;27.60;;;;;;5021629;28;20137;-72
2022/04/18 10:15:59;;;;;;;6.68;3.00;;;21.80;28.80;;;;;;5029825;28;20025;-74
2022/04/18 10:18:25;;;;;;;6.97;3.22;;;22.00;26.70;;;;;;5034619;28;20532;-73
2022/04/18 10:21:08;;;;;;;7.57;3.33;;;21.60;28.50;;;;;;5022334;28;20125;-71
2022/04/18 10:24:12;;;;;;;7.18;3.20;;;21.80;28.30;;;;;;5024593;28;20045;-72
2022/04/18 10:27:02;;;;;;;6.82;3.15;;;22.00;27.30;;;;;;5031214;28;20075;-75
2022/04/18 10:29:32;;;;;;;5.88;2.17;;;21.90;27.50;;;;;;5028621;28;20120;-74
2022/04/18 10:32:03;;;;;;;6.03;2.45;;;22.10;26.60;;;;;;5032180;28;20069;-72
2022/04/18 10:34:31;;;;;;;5.72;2.80;;;22.10;26.10;;;;;;5028186;28;20043;-72
2022/04/18 10:37:00;;;;;;;5.93;2.83;;;21.90;26.70;;;;;;5030665;28;20022;-73
2022/04/18 10:39:34;;;;;;;5.40;2.92;;;22.00;26.50;;;;;;5028178;28;20048;-74
2022/04/18 10:42:22;;;;;;;7.10;3.03;;;22.10;26.90;;;;;;5014430;28;20068;-74
2022/04/18 10:45:10;;;;;;;5.68;3.00;;;22.40;26.90;;;;;;5041570;28;20488;-74
2022/04/18 10:47:55;;;;;;;6.03;2.65;;;22.30;27.90;;;;;;5042541;28;20497;-72
2022/04/18 10:50:22;;;;;;;4.40;2.17;;;22.10;26.80;;;;;;5031701;28;20041;-73
2022/04/18 10:53:10;;;;;;;5.05;2.50;;;22.40;26.90;;;;;;5026393;28;20606;-75
2022/04/18 10:55:41;;;;;;;3.80;2.13;;;22.60;25.40;;;;;;5016978;28;20041;-75
2022/04/18 10:58:15;;;;;;;5.03;2.20;;;22.80;25.20;;;;;;5028105;28;20033;-73
2022/04/18 11:00:52;;;;;;;6.57;2.75;;;22.50;24.40;;;;;;5031164;28;20060;-72
2022/04/18 11:03:39;;;;;;;4.65;2.50;;;22.50;26.00;;;;;;5026144;28;20025;-73
2022/04/18 11:06:32;;;;;;;5.55;2.58;;;22.60;26.50;;;;;;5027134;28;20114;-74
2022/04/18 11:09:06;;;;;;;5.90;2.60;;;22.30;26.10;;;;;;5026265;28;20052;-71
2022/04/18 11:11:43;;;;;;;5.93;2.60;;;22.40;26.50;;;;;;5024450;28;21506;-73
2022/04/18 11:14:26;;;;;;;6.55;2.90;;;22.20;26.90;;;;;;5027109;28;20148;-74
2022/04/18 11:16:54;;;;;;;6.68;3.00;;;22.10;25.80;;;;;;5026014;28;20040;-73
2022/04/18 11:19:30;;;;;;;5.75;2.58;;;21.90;28.00;;;;;;5027011;28;20041;-73
2022/04/18 11:22:04;;;;;;;6.80;2.70;;;22.00;26.00;;;;;;5024477;28;20061;-73
2022/04/18 11:24:49;;;;;;;4.75;2.33;;;22.00;26.30;;;;;;5025683;28;20037;-73
2022/04/18 11:27:36;;;;;;;3.85;1.90;;;22.20;26.50;;;;;;5023647;28;20334;-72
2022/04/18 11:30:12;;;;;;;3.42;1.83;;;22.20;24.00;;;;;;5030265;28;20110;-72
2022/04/18 11:32:41;;;;;;;4.93;2.65;;;22.10;24.00;;;;;;5010760;28;20545;-72
2022/04/18 11:35:09;;;;;;;7.47;3.28;;;22.30;25.40;;;;;;5023569;28;20132;-74
2022/04/18 11:37:36;;;;;;;5.00;2.80;;;22.30;26.10;;;;;;5027123;28;20593;-73
2022/04/18 11:40:10;;;;;;;8.02;2.47;;;22.20;25.70;;;;;;5030339;28;20083;-74
2022/04/18 11:42:38;;;;;;;6.75;2.60;;;22.50;25.20;;;;;;5025904;28;20034;-73
2022/04/18 11:45:06;;;;;;;4.60;2.53;;;22.70;25.50;;;;;;5030908;28;20049;-75
2022/04/18 11:47:41;;;;;;;5.53;2.83;;;22.80;26.00;;;;;;5027541;28;20033;-73
2022/04/18 11:50:08;;;;;;;4.40;2.72;;;22.60;24.80;;;;;;5021089;28;20033;-73
2022/04/18 11:52:36;;;;;;;5.20;2.70;;;22.80;24.80;;;;;;5022992;28;20034;-71
2022/04/18 11:55:14;;;;;;;5.03;3.08;;;22.90;24.50;;;;;;5025405;28;20068;-72
2022/04/18 11:57:43;;;;;;;4.07;2.70;;;22.90;24.10;;;;;;5026371;28;20511;-73
2022/04/18 12:00:13;;;;;;;7.38;3.03;;;22.80;26.00;;;;;;5024730;28;20057;-72
2022/04/18 12:08:18;;;;;;;5.03;2.50;;;22.90;23.40;;;;;;5030417;28;20052;-73
2022/04/18 12:10:45;;;;;;;6.22;3.03;;;23.00;24.30;;;;;;5022375;28;20534;-74
2022/04/18 12:13:13;;;;;;;4.35;2.40;;;23.20;22.90;;;;;;5020146;28;20072;-72
2022/04/18 12:15:41;;;;;;;6.05;2.70;;;23.10;23.40;;;;;;5030586;28;20125;-72
2022/04/18 12:18:15;;;;;;;6.80;2.70;;;22.90;23.70;;;;;;5026476;28;20030;-72
2022/04/18 12:20:50;;;;;;;5.28;2.40;;;22.80;24.00;;;;;;5025773;28;20030;-73
2022/04/18 12:23:20;;;;;;;5.72;2.72;;;22.80;23.70;;;;;;5031669;28;20033;-74
2022/04/18 12:25:48;;;;;;;5.68;2.90;;;23.00;24.10;;;;;;5019953;28;20041;-72
2022/04/18 12:28:18;;;;;;;5.25;2.60;;;23.00;23.80;;;;;;5024450;28;20044;-73
2022/04/18 12:30:44;;;;;;;5.43;2.65;;;22.80;23.60;;;;;;5022242;28;20436;-73
2022/04/18 12:33:19;;;;;;;4.65;2.58;;;22.80;23.30;;;;;;5020981;28;21025;-75
2022/04/18 12:35:53;;;;;;;4.40;2.45;;;22.80;23.40;;;;;;5028472;28;20046;-74
2022/04/18 12:38:39;;;;;;;4.50;2.38;;;22.80;24.40;;;;;;5025604;28;20495;-73
2022/04/18 12:41:05;;;;;;;5.65;2.40;;;23.00;23.60;;;;;;5029379;28;20141;-72
2022/04/18 12:43:33;;;;;;;4.57;2.67;;;22.80;22.70;;;;;;5016405;28;20051;-73
2022/04/18 12:46:05;;;;;;;7.13;3.28;;;22.90;22.90;;;;;;5030695;28;20607;-73
2022/04/18 12:48:33;;;;;;;5.47;2.58;;;22.70;23.90;;;;;;5031439;28;20159;-72
2022/04/18 12:51:04;;;;;;;5.70;3.05;;;22.50;23.80;;;;;;5029739;28;20116;-74
2022/04/18 12:53:48;;;;;;;6.25;3.20;;;22.50;24.60;;;;;;5016556;28;20037;-73
2022/04/18 12:56:23;;;;;;;4.80;2.88;;;22.60;24.60;;;;;;5023650;28;20048;-75
2022/04/18 12:58:52;;;;;;;5.53;2.95;;;22.70;24.60;;;;;;5022950;28;20072;-72
2022/04/18 13:01:26;;;;;;;6.43;3.17;;;22.80;25.10;;;;;;5015321;28;20041;-73
2022/04/18 13:03:53;;;;;;;5.25;2.70;;;22.80;24.30;;;;;;5028112;28;20057;-72
2022/04/18 13:06:37;;;;;;;5.68;2.80;;;22.60;23.70;;;;;;5030470;28;20050;-74
2022/04/18 13:09:08;;;;;;;9.27;2.75;;;23.00;24.40;;;;;;5029003;28;20029;-74
2022/04/18 13:11:42;;;;;;;4.70;2.65;;;23.00;24.10;;;;;;5025476;28;20038;-72
2022/04/18 13:14:09;;;;;;;;;;;22.90;24.80;;;;;;5031309;28;20027;-72
2022/04/18 13:16:35;;;;;;;6.18;2.80;;;22.90;24.50;;;;;;5027513;28;20003;-75
2022/04/18 13:19:11;;;;;;;5.90;2.80;;;23.00;24.70;;;;;;5036493;28;20488;-76
2022/04/18 13:21:38;;;;;;;4.78;2.88;;;22.90;23.20;;;;;;5029140;28;20041;-73